createdAt,value
2022-11-20T00:01:37.548Z,21.22
2022-11-20T00:06:40.334Z,21.23
2022-11-20T00:11:43.086Z,21.22
2022-11-20T00:16:47.318Z,21.22
2022-11-20T00:21:52.283Z,21.25
2022-11-20T00:26:55.166Z,21.22
2022-11-20T00:31:59.537Z,21.22
2022-11-20T00:37:02.315Z,21.21
2022-11-20T00:42:05.376Z,21.19
2022-11-20T00:47:09.669Z,21.21
2022-11-20T00:52:12.451Z,21.20
2022-11-20T00:57:15.273Z,21.20
2022-11-20T01:02:19.492Z,21.18
2022-11-20T01:07:22.406Z,21.20
2022-11-20T01:12:25.200Z,21.20
2022-11-20T01:17:29.286Z,21.18
2022-11-20T01:22:32.025Z,21.16
2022-11-20T01:27:34.925Z,21.16
2022-11-20T01:32:38.999Z,21.18
2022-11-20T01:37:41.763Z,21.17
2022-11-20T01:43:04.997Z,21.17
2022-11-20T01:48:09.192Z,21.16
2022-11-20T01:53:13.260Z,21.14
2022-11-20T01:58:16.294Z,21.15
2022-11-20T02:03:20.768Z,21.13
2022-11-20T02:08:23.583Z,21.15
2022-11-20T02:13:43.658Z,21.11
2022-11-20T02:18:47.774Z,21.04
2022-11-20T02:24:03.787Z,20.95
2022-11-20T02:29:06.544Z,20.87
2022-11-20T02:34:09.314Z,20.81
2022-11-20T02:39:14.100Z,20.73
2022-11-20T02:44:16.852Z,20.69
2022-11-20T02:49:20.199Z,20.81
2022-11-20T02:54:24.764Z,20.83
2022-11-20T02:59:27.558Z,20.92
2022-11-20T03:04:30.426Z,20.90
2022-11-20T03:09:34.606Z,20.76
2022-11-20T03:14:37.366Z,20.69
2022-11-20T03:19:40.146Z,20.62
2022-11-20T03:24:44.332Z,20.48
2022-11-20T03:29:47.150Z,20.32
2022-11-20T03:34:49.940Z,20.21
2022-11-20T03:39:54.067Z,20.07
2022-11-20T03:44:57.033Z,19.99
2022-11-20T03:50:00.026Z,19.95
2022-11-20T03:55:04.377Z,19.90
2022-11-20T04:00:08.591Z,19.80
2022-11-20T04:05:11.361Z,19.71
2022-11-20T04:10:15.602Z,19.59
2022-11-20T04:15:19.213Z,19.54
2022-11-20T04:20:22.337Z,19.46
2022-11-20T04:25:26.522Z,19.40
2022-11-20T04:30:29.649Z,19.43
2022-11-20T04:35:32.445Z,19.42
2022-11-20T04:40:36.577Z,19.38
2022-11-20T04:45:39.564Z,19.37
2022-11-20T04:50:42.399Z,19.32
2022-11-20T04:55:46.712Z,19.27
2022-11-20T05:00:52.640Z,19.22
2022-11-20T05:05:55.493Z,19.13
2022-11-20T05:11:03.213Z,19.08
2022-11-20T05:16:06.937Z,19.01
2022-11-20T05:21:10.250Z,18.95
2022-11-20T05:26:16.594Z,18.94
2022-11-20T05:31:26.210Z,18.91
2022-11-20T05:36:29.725Z,18.86
2022-11-20T05:41:34.833Z,18.87
2022-11-20T05:46:37.816Z,18.87
2022-11-20T05:51:40.731Z,18.81
2022-11-20T05:56:45.051Z,18.79
2022-11-20T06:01:47.812Z,18.76
2022-11-20T06:06:50.591Z,18.74
2022-11-20T06:11:54.689Z,18.70
2022-11-20T06:16:57.456Z,18.70
2022-11-20T06:22:00.212Z,18.69
2022-11-20T06:27:04.364Z,18.68
2022-11-20T06:32:07.259Z,18.67
2022-11-20T06:37:10.105Z,18.65
2022-11-20T06:42:14.299Z,18.65
2022-11-20T06:47:17.100Z,18.65
2022-11-20T06:52:20.164Z,18.62
2022-11-20T06:57:24.313Z,18.62
2022-11-20T07:02:27.124Z,18.58
2022-11-20T07:07:29.888Z,18.59
2022-11-20T07:12:34.012Z,18.61
2022-11-20T07:17:36.825Z,18.60
2022-11-20T07:22:39.630Z,18.63
2022-11-20T07:27:43.753Z,18.64
2022-11-20T07:32:48.485Z,18.63
2022-11-20T07:37:51.316Z,18.64
2022-11-20T07:42:56.091Z,18.64
2022-11-20T07:47:59.083Z,18.59
2022-11-20T07:53:05.513Z,18.56
2022-11-20T07:58:09.625Z,18.57
2022-11-20T08:03:12.360Z,18.55
2022-11-20T08:08:15.118Z,18.54
2022-11-20T08:13:35.740Z,18.51
2022-11-20T08:18:38.539Z,18.53
2022-11-20T08:23:41.272Z,18.55
2022-11-20T08:28:46.149Z,18.61
2022-11-20T08:33:48.900Z,18.65
2022-11-20T08:38:52.108Z,18.69
2022-11-20T08:43:57.931Z,17.71
2022-11-20T08:49:00.882Z,14.81
2022-11-20T08:54:04.068Z,12.20
2022-11-20T08:59:44.102Z,14.40
2022-11-20T09:04:30.919Z,16.34
2022-11-20T09:09:33.660Z,16.88
2022-11-20T09:14:37.727Z,17.15
2022-11-20T09:19:40.480Z,17.34
2022-11-20T09:24:43.732Z,17.49
2022-11-20T09:29:47.831Z,17.57
2022-11-20T09:34:50.582Z,17.65
2022-11-20T09:39:53.372Z,17.70
2022-11-20T09:45:04.416Z,17.74
2022-11-20T09:50:21.540Z,17.82
2022-11-20T09:55:24.395Z,17.87
2022-11-20T10:00:28.581Z,17.94
2022-11-20T10:05:33.569Z,18.11
2022-11-20T10:10:42.699Z,18.37
2022-11-20T10:15:55.448Z,18.56
2022-11-20T10:21:00.432Z,18.73
2022-11-20T10:26:04.349Z,18.91
2022-11-20T10:31:10.699Z,19.04
2022-11-20T10:36:16.890Z,19.19
2022-11-20T10:41:30.886Z,19.34
2022-11-20T10:46:40.223Z,19.40
2022-11-20T10:51:49.712Z,19.51
2022-11-20T10:56:53.241Z,19.54
2022-11-20T11:01:57.347Z,19.61
2022-11-20T11:07:04.952Z,19.67
2022-11-20T11:12:09.334Z,19.68
2022-11-20T11:17:27.869Z,19.72
2022-11-20T11:22:31.070Z,19.76
2022-11-20T11:27:34.271Z,19.74
2022-11-20T11:32:38.407Z,19.74
2022-11-20T11:37:41.239Z,19.82
2022-11-20T11:42:44.194Z,19.80
2022-11-20T11:47:49.275Z,19.80
2022-11-20T11:53:07.712Z,19.82
2022-11-20T11:58:20.481Z,19.81
2022-11-20T12:03:27.522Z,19.80
2022-11-20T12:08:33.571Z,19.88
2022-11-20T12:13:41.948Z,19.84
2022-11-20T12:18:46.432Z,19.87
2022-11-20T12:24:09.008Z,19.88
2022-11-20T12:29:13.653Z,19.90
2022-11-20T12:34:32.050Z,20.01
2022-11-20T12:39:36.865Z,20.13
2022-11-20T12:45:05.616Z,20.28
2022-11-20T12:50:12.541Z,20.45
2022-11-20T12:55:18.735Z,20.63
2022-11-20T13:00:22.219Z,20.82
2022-11-20T13:05:31.578Z,20.89
2022-11-20T13:10:37.575Z,20.94
2022-11-20T13:15:49.782Z,20.97
2022-11-20T13:20:54.159Z,20.98
2022-11-20T13:26:07.644Z,21.01
2022-11-20T13:31:12.131Z,21.08
2022-11-20T13:36:24.543Z,21.14
2022-11-20T13:41:32.234Z,21.06
2022-11-20T13:46:39.025Z,20.98
2022-11-20T13:51:45.629Z,20.96
2022-11-20T13:56:54.073Z,20.94
2022-11-20T14:01:56.843Z,20.87
2022-11-20T14:07:01.010Z,20.85
2022-11-20T14:12:04.719Z,20.86
2022-11-20T14:17:08.353Z,20.86
2022-11-20T14:22:20.968Z,20.80
2022-11-20T14:27:23.842Z,20.71
2022-11-20T14:32:28.640Z,20.69
2022-11-20T14:37:34.707Z,20.66
2022-11-20T14:42:38.432Z,20.71
2022-11-20T14:47:41.184Z,20.78
2022-11-20T14:52:53.666Z,20.88
2022-11-20T14:57:57.138Z,20.95
2022-11-20T15:02:59.884Z,21.00
2022-11-20T15:08:13.050Z,21.06
2022-11-20T15:13:17.034Z,21.10
2022-11-20T15:18:20.653Z,21.19
2022-11-20T15:23:25.149Z,21.21
2022-11-20T15:28:31.255Z,21.29
2022-11-20T15:33:34.266Z,21.33
2022-11-20T15:38:38.681Z,21.39
2022-11-20T15:43:41.564Z,21.54
2022-11-20T15:48:48.344Z,21.60
2022-11-20T15:58:55.734Z,21.79
2022-11-20T16:03:58.479Z,21.84
2022-11-20T16:09:02.619Z,21.94
2022-11-20T16:14:22.864Z,21.98
2022-11-20T16:19:25.849Z,22.04
2022-11-20T16:24:30.041Z,22.13
2022-11-20T16:29:32.835Z,22.19
2022-11-20T16:34:35.580Z,22.24
2022-11-20T16:39:39.721Z,22.33
2022-11-20T16:44:42.502Z,22.37
2022-11-20T16:49:45.250Z,22.42
2022-11-20T16:54:49.419Z,22.49
2022-11-20T16:59:52.192Z,22.53
2022-11-20T17:04:54.952Z,22.56
2022-11-20T17:09:59.103Z,22.60
2022-11-20T17:15:01.893Z,22.59
2022-11-20T17:20:05.191Z,22.64
2022-11-20T17:25:09.983Z,22.68
2022-11-20T17:30:13.143Z,22.65
2022-11-20T17:35:16.085Z,22.65
2022-11-20T17:40:24.534Z,22.76
2022-11-20T17:45:30.069Z,22.83
2022-11-20T17:50:32.937Z,22.82
2022-11-20T17:55:55.925Z,22.77
2022-11-20T18:01:05.926Z,22.86
2022-11-20T18:06:11.992Z,22.74
2022-11-20T18:11:17.087Z,22.67
2022-11-20T18:16:19.839Z,22.62
2022-11-20T18:21:22.710Z,22.52
2022-11-20T18:26:27.048Z,22.49
2022-11-20T18:31:29.850Z,22.43
2022-11-20T18:36:33.381Z,22.36
2022-11-20T18:41:54.908Z,22.36
2022-11-20T18:46:57.689Z,22.28
2022-11-20T18:52:00.481Z,22.20
2022-11-20T18:57:04.880Z,22.17
2022-11-20T19:02:07.825Z,22.16
2022-11-20T19:07:12.264Z,22.13
2022-11-20T19:12:16.744Z,22.11
2022-11-20T19:17:19.745Z,22.09
2022-11-20T19:22:22.781Z,22.16
2022-11-20T19:27:27.360Z,22.12
2022-11-20T19:32:32.609Z,22.10
2022-11-20T19:37:35.657Z,22.12
2022-11-20T19:42:40.146Z,22.10
2022-11-20T19:53:07.354Z,22.17
2022-11-20T19:58:11.665Z,22.20
2022-11-20T20:03:14.446Z,22.17
2022-11-20T20:08:17.301Z,22.16
2022-11-20T20:13:21.424Z,22.18
2022-11-20T20:18:24.180Z,22.16
2022-11-20T20:23:27.020Z,22.16
2022-11-20T20:28:31.245Z,22.12
2022-11-20T20:33:34.310Z,22.13
2022-11-20T20:38:37.436Z,22.13
2022-11-20T20:43:58.851Z,22.13
2022-11-20T20:49:01.634Z,22.13
2022-11-20T20:54:04.465Z,22.06
2022-11-20T20:59:08.603Z,22.11
2022-11-20T21:04:11.844Z,22.13
2022-11-20T21:09:14.861Z,22.10
2022-11-20T21:14:19.450Z,22.12
2022-11-20T21:19:22.269Z,22.01
2022-11-20T21:24:25.465Z,22.03
2022-11-20T21:29:31.073Z,22.05
2022-11-20T21:34:33.868Z,22.02
2022-11-20T21:39:50.476Z,21.99
2022-11-20T21:44:54.698Z,22.05
2022-11-20T21:49:57.461Z,22.06
2022-11-20T21:55:00.291Z,22.08
2022-11-20T22:00:05.307Z,22.03
2022-11-20T22:05:13.036Z,21.98
2022-11-20T22:10:18.673Z,22.02
2022-11-20T22:15:45.756Z,22.02
2022-11-20T22:20:45.825Z,21.98
2022-11-20T22:25:48.704Z,21.98
2022-11-20T22:30:52.915Z,21.96
2022-11-20T22:36:01.168Z,21.95
2022-11-20T22:41:04.502Z,21.93
2022-11-20T22:46:09.372Z,21.93
2022-11-20T22:51:13.768Z,21.94
2022-11-20T22:56:16.775Z,21.91
2022-11-20T23:01:21.559Z,21.94
2022-11-20T23:06:24.688Z,21.91
2022-11-20T23:11:28.449Z,21.92
2022-11-20T23:16:32.736Z,21.88
2022-11-20T23:21:35.982Z,21.90
2022-11-20T23:26:39.824Z,21.88
2022-11-20T23:31:44.280Z,21.93
2022-11-20T23:36:47.022Z,21.90
2022-11-20T23:41:49.775Z,21.83
2022-11-20T23:46:53.871Z,21.79
2022-11-20T23:51:56.807Z,21.73
2022-11-20T23:56:59.937Z,21.65
